Terminal Aerodrome Forecast
Issued by NWS Tallahassee, FL

Current Version | Previous Version | Text Only | Print | Product List | Glossary On
Versions: 1 2 3 4 5 6 7 8 9 10 11 12 13
000
FTUS42 KTAE 281728
TAFTLH
TAF
KTLH 281728Z 2818/2918 22010KT P6SM VCTS SCT025CB BKN250
     FM290100 24005KT P6SM BKN250
     FM291400 30004KT P6SM SCT250=

USA.gov is the U.S. government's official web portal to all federal, state and local government web resources and services.